CheckWX is a tool to help pilots better visualize weather data.  It is not intended as a substitute for an official pre-flight weather briefing.

16:12:49 UTC

VTST METAR
Trang Airport
Thailand
Current

3 hours ago

VTST 231300Z 04007KT 9999 FEW020 28/23 Q1011 NOSIG
Observed
Jan-23 @ 13:00 UTC
Wind
  • 040° at 7 KTS
Visibility
10,000+ meters
Flight Rules
VFR
Cloud Levels
  • Few at 2,000' AGL
Temperature
28°C / 82°F
Dewpoint
23°C / 73°F
Heat Index
31°C / 87°F
Humidity
74%
Altimeter
29.85" Hg
Pressure
1010.92 hPa
Previous

4 hours ago

VTST 231200Z 05006KT 9999 FEW020 29/23 Q1011 NOSIG
Observed
Jan-23 @ 12:00 UTC
Wind
  • 050° at 6 KTS
Visibility
10,000+ meters
Flight Rules
VFR
Cloud Levels
  • Few at 2,000' AGL
Temperature
29°C / 84°F
Dewpoint
23°C / 73°F
Heat Index
32°C / 90°F
Humidity
70%
Altimeter
29.85" Hg
Pressure
1010.92 hPa
Previous

5 hours ago

VTST 231100Z 05007KT 9999 FEW020 30/22 Q1010 NOSIG
Observed
Jan-23 @ 11:00 UTC
Wind
  • 050° at 7 KTS
Visibility
10,000+ meters
Flight Rules
VFR
Cloud Levels
  • Few at 2,000' AGL
Temperature
30°C / 86°F
Dewpoint
22°C / 72°F
Heat Index
33°C / 92°F
Humidity
62%
Altimeter
29.82" Hg
Pressure
1009.92 hPa